FADY

De Aar Military Airport

De Aar, South Africa
METAR FADY 190834Z 01008KT CAVOK 14/02 Q1022
Observed Flight Rules
Aug-19 @ 08:34 UTC (7 hours ago) Visual Flight Rules
Wind Visibility Clouds
10° at 8 knots 10,000+ meters
  • Clear skies
Temperatures Readings
Current 14°C / 57°F
Dewpoint 2°C / 36°F
Humidity 44%
Altimeter 30.18" Hg
Pressure 1022 hPa
Elevation 384
METAR FADY 190834Z 01008KT CAVOK 14/02 Q1022
Observed Flight Rules
Aug-19 @ 08:34 UTC
(7 hours ago)
VFR
Wind Visibility
10° at 8 knots 10,000+ meters
Clouds
  • Clear skies
Temperature Dewpoint
14°C / 57°F 2°C / 36°F
Humidity Altimeter Pressure
44% 30.18" Hg 1022 hPa